Time;durP1;ratioP1;P1;durP2;ratioP2;P2;SDS_P1;SDS_P2;PMS_P1;PMS_P2;Temp;Humidity;BMP_temperature;BMP_pressure;BME280_temperature;BME280_humidity;BME280_pressure;Samples;Min_cycle;Max_cycle;Signal;HPM_P1;HPM_P2
2023/09/11 00:02:21;;;;;;;;;11.67;11.33;;;;;30.33;44.38;101349.06;5016096;28;46555;-78
2023/09/11 00:04:47;;;;;;;;;16.67;12.33;;;;;30.33;44.12;101352.56;5024981;28;45387;-78
2023/09/11 00:07:13;;;;;;;;;13.33;12.33;;;;;30.32;44.31;101342.03;5036176;28;45515;-78
2023/09/11 00:09:38;;;;;;;;;11.00;11.00;;;;;30.32;44.45;101342.03;5036356;28;45312;-79
2023/09/11 00:12:04;;;;;;;;;12.33;12.33;;;;;30.34;44.58;101348.84;5050921;28;47182;-78
2023/09/11 00:14:30;;;;;;;;;11.00;11.00;;;;;30.33;44.76;101346.38;5034283;28;45279;-78
2023/09/11 00:16:55;;;;;;;;;11.00;11.00;;;;;30.33;44.44;101349.06;5034937;28;45284;-78
2023/09/11 00:19:20;;;;;;;;;14.33;13.67;;;;;30.35;44.42;101349.66;5035673;28;45618;-78
2023/09/11 00:21:46;;;;;;;;;10.33;10.33;;;;;30.35;44.22;101349.66;5034336;28;47852;-78
2023/09/11 00:24:11;;;;;;;;;13.00;13.00;;;;;30.36;44.41;101344.06;5051030;28;46095;-78
2023/09/11 00:26:36;;;;;;;;;13.00;13.00;;;;;30.33;44.68;101331.09;5051762;28;45301;-77
2023/09/11 00:29:02;;;;;;;;;12.00;12.00;;;;;30.39;44.57;101346.28;5034791;28;45258;-78
2023/09/11 00:31:27;;;;;;;;;11.00;11.00;;;;;30.35;44.49;101329.00;5034389;28;46059;-78
2023/09/11 00:33:52;;;;;;;;;15.33;14.67;;;;;30.35;44.36;101325.50;5034097;28;45234;-79
2023/09/11 00:36:18;;;;;;;;;12.67;12.00;;;;;30.36;44.41;101322.59;5036058;28;45249;-78
2023/09/11 00:38:47;;;;;;;;;11.33;11.00;;;;;30.38;44.50;101325.03;5050613;28;45614;-78
2023/09/11 00:41:13;;;;;;;;;12.33;11.33;;;;;30.40;44.52;101321.09;5034488;28;47102;-79
2023/09/11 00:43:38;;;;;;;;;11.00;11.00;;;;;30.43;44.25;101316.31;5068094;28;46290;-78
2023/09/11 00:46:05;;;;;;;;;13.33;13.33;;;;;30.34;44.42;101303.22;5051317;28;45370;-78
2023/09/11 00:48:31;;;;;;;;;10.33;10.33;;;;;30.42;44.65;101318.16;5035498;28;45250;-78
2023/09/11 00:50:56;;;;;;;;;12.33;10.33;;;;;30.40;44.74;101317.56;5033381;28;46930;-78
2023/09/11 00:53:22;;;;;;;;;10.67;10.67;;;;;30.40;44.25;101318.41;5035466;28;45383;-78
2023/09/11 00:55:47;;;;;;;;;12.00;12.00;;;;;30.38;44.76;101308.94;5035727;28;45355;-79
2023/09/11 00:58:16;;;;;;;;;13.33;13.33;;;;;30.39;44.48;101308.69;5035802;28;45424;-78
2023/09/11 01:00:44;;;;;;;;;12.00;12.00;;;;;30.42;44.03;101310.09;5035570;28;45492;-78
2023/09/11 01:03:11;;;;;;;;;11.33;10.00;;;;;30.42;44.31;101301.25;5035177;28;45407;-78
2023/09/11 01:05:37;;;;;;;;;10.67;10.67;;;;;30.34;44.65;101289.81;5035559;28;45347;-78
2023/09/11 01:08:03;;;;;;;;;12.00;12.00;;;;;30.39;44.73;101294.47;5035407;28;45371;-79
2023/09/11 01:10:29;;;;;;;;;10.67;10.67;;;;;30.40;44.00;101296.94;5033589;28;46388;-79
2023/09/11 01:12:55;;;;;;;;;11.33;11.33;;;;;30.32;44.49;101289.16;5033425;28;45690;-78
2023/09/11 01:15:21;;;;;;;;;10.67;10.67;;;;;30.41;44.29;101297.75;5035580;28;45459;-78
2023/09/11 01:17:55;;;;;;;;;10.33;10.33;;;;;30.40;44.45;101285.38;5033731;28;45373;-79
2023/09/11 01:20:20;;;;;;;;;11.33;10.33;;;;;30.44;44.42;101293.78;5034176;28;47341;-78
2023/09/11 01:23:08;;;;;;;;;17.00;13.00;;;;;30.43;44.64;101295.66;5033798;28;45473;-79
2023/09/11 01:25:46;;;;;;;;;11.67;9.33;;;;;30.44;44.20;101288.44;5037867;28;45249;-78
2023/09/11 01:28:56;;;;;;;;;11.33;11.00;;;;;30.42;44.39;101291.31;5038770;28;45455;-78
2023/09/11 01:31:23;;;;;;;;;12.33;12.00;;;;;30.43;44.51;101289.47;4996251;28;45459;-78
2023/09/11 01:34:00;;;;;;;;;10.33;10.33;;;;;30.32;44.23;101277.63;4996374;28;45439;-79
2023/09/11 01:36:25;;;;;;;;;11.00;10.33;;;;;30.42;44.13;101287.84;4996703;28;45334;-78
2023/09/11 01:38:50;;;;;;;;;11.33;10.33;;;;;30.40;44.27;101282.69;4996407;28;45253;-79
2023/09/11 01:41:17;;;;;;;;;11.33;11.00;;;;;30.39;44.29;101273.81;4979955;28;48247;-78
2023/09/11 01:43:45;;;;;;;;;11.33;11.33;;;;;30.44;44.50;101280.38;4980304;28;45435;-78
2023/09/11 01:46:12;;;;;;;;;11.33;11.33;;;;;30.44;44.16;101296.47;4996852;28;46102;-79
2023/09/11 01:48:38;;;;;;;;;10.00;10.00;;;;;30.39;44.60;101289.13;5012576;28;45431;-78
2023/09/11 01:51:06;;;;;;;;;12.67;11.67;;;;;30.39;44.19;101287.22;4996274;28;45511;-79
2023/09/11 01:53:32;;;;;;;;;11.33;11.33;;;;;30.44;44.28;101296.47;4996314;28;45295;-79
2023/09/11 01:55:59;;;;;;;;;11.33;11.33;;;;;30.43;44.38;101297.50;4996175;28;45425;-78
2023/09/11 01:58:24;;;;;;;;;12.67;11.67;;;;;30.43;44.02;101298.34;4980009;28;45359;-78
2023/09/11 02:00:50;;;;;;;;;13.67;11.00;;;;;30.44;44.27;101299.16;4995862;28;46116;-78
2023/09/11 02:03:18;;;;;;;;;9.33;9.33;;;;;30.44;44.29;101309.91;4996113;28;45631;-79
2023/09/11 02:05:43;;;;;;;;;13.67;11.00;;;;;30.40;44.41;101296.09;4996208;28;45334;-79
2023/09/11 02:08:09;;;;;;;;;10.67;10.67;;;;;30.42;43.95;101296.69;5022287;28;45620;-79
2023/09/11 02:10:34;;;;;;;;;11.33;11.33;;;;;30.40;44.15;101294.25;5053680;28;47176;-79
2023/09/11 02:12:59;;;;;;;;;10.00;10.00;;;;;30.40;44.38;101288.06;5038108;28;45319;-78
2023/09/11 02:15:25;;;;;;;;;10.33;10.33;;;;;30.42;44.03;101291.31;5037887;28;45324;-78
2023/09/11 02:17:50;;;;;;;;;11.00;11.00;;;;;30.41;44.02;101292.38;5036898;28;45420;-79
2023/09/11 02:20:15;;;;;;;;;12.67;11.33;;;;;30.43;44.03;101292.97;5053484;28;46523;-78
2023/09/11 02:22:40;;;;;;;;;11.33;11.00;;;;;30.47;43.84;101301.41;5036748;28;45851;-79
2023/09/11 02:25:06;;;;;;;;;11.33;11.33;;;;;30.46;44.20;101305.13;5038086;28;45414;-79
2023/09/11 02:27:32;;;;;;;;;15.00;12.00;;;;;30.42;44.17;101299.38;5037843;28;45639;-79
2023/09/11 02:29:57;;;;;;;;;11.00;10.67;;;;;30.44;44.20;101299.16;5037516;28;45397;-78
2023/09/11 02:32:22;;;;;;;;;11.33;9.33;;;;;30.45;44.52;101295.41;5037596;28;45391;-79
2023/09/11 02:34:48;;;;;;;;;12.67;12.67;;;;;30.41;43.87;101281.66;5036300;28;45430;-78
2023/09/11 02:37:13;;;;;;;;;10.33;10.33;;;;;30.33;43.81;101266.69;5036683;28;45602;-79
2023/09/11 02:39:38;;;;;;;;;12.67;10.00;;;;;30.43;44.10;101281.41;5037620;28;45307;-79
2023/09/11 02:42:04;;;;;;;;;13.00;12.00;;;;;30.43;43.74;101284.91;5037756;28;45415;-79
2023/09/11 02:44:30;;;;;;;;;12.00;12.00;;;;;30.42;44.17;101277.91;5036292;28;45372;-79
2023/09/11 02:46:55;;;;;;;;;11.00;10.33;;;;;30.45;43.77;101284.69;5036570;28;45653;-78
2023/09/11 02:49:20;;;;;;;;;11.33;11.33;;;;;30.43;44.10;101284.91;5035961;28;46686;-79
2023/09/11 02:51:46;;;;;;;;;12.33;12.33;;;;;30.41;43.83;101273.59;5037507;28;45413;-79
2023/09/11 02:54:11;;;;;;;;;12.33;11.33;;;;;30.46;44.02;101289.00;5036375;28;45465;-79
2023/09/11 02:56:38;;;;;;;;;11.67;10.00;;;;;30.44;43.61;101283.06;5036289;28;45600;-79
2023/09/11 02:59:04;;;;;;;;;11.00;11.00;;;;;30.43;43.83;101281.41;5052570;28;45411;-79
2023/09/11 03:01:30;;;;;;;;;10.00;9.67;;;;;30.45;43.80;101282.81;5037187;28;45403;-78
2023/09/11 03:03:56;;;;;;;;;9.00;9.00;;;;;30.38;43.91;101274.88;5035693;28;45266;-78
2023/09/11 03:06:21;;;;;;;;;11.33;11.33;;;;;30.44;43.90;101281.19;5036201;28;45623;-79
2023/09/11 03:08:46;;;;;;;;;13.00;12.33;;;;;30.42;44.06;101274.41;5035318;28;47795;-79
2023/09/11 03:11:12;;;;;;;;;11.00;11.00;;;;;30.41;44.08;101270.91;5035919;28;45192;-79
2023/09/11 03:13:37;;;;;;;;;12.00;12.00;;;;;30.40;44.10;101267.41;5035176;28;45344;-78
2023/09/11 03:16:07;;;;;;;;;12.00;12.00;;;;;30.42;43.83;101274.41;5036804;28;45335;-79
2023/09/11 03:18:33;;;;;;;;;9.00;9.00;;;;;30.39;43.80;101267.63;5037056;28;46699;-78
2023/09/11 03:20:58;;;;;;;;;12.00;11.67;;;;;30.45;44.00;101279.31;5036672;28;45359;-78
2023/09/11 03:23:24;;;;;;;;;10.33;10.33;;;;;30.43;43.76;101268.00;5052720;28;45325;-79
2023/09/11 03:25:49;;;;;;;;;12.00;10.33;;;;;30.42;44.05;101261.00;5035855;28;45585;-78
2023/09/11 03:28:14;;;;;;;;;10.00;10.00;;;;;30.43;43.95;101268.00;5035069;28;48305;-77
2023/09/11 03:30:39;;;;;;;;;11.67;11.33;;;;;30.44;43.82;101270.47;5035696;28;46289;-77
2023/09/11 03:33:05;;;;;;;;;11.00;11.00;;;;;30.44;43.79;101264.28;5036989;28;45795;-76
2023/09/11 03:35:30;;;;;;;;;11.67;11.00;;;;;30.45;43.79;101263.19;5035660;28;45673;-77
2023/09/11 03:37:55;;;;;;;;;12.67;12.33;;;;;30.47;43.68;101261.94;5051346;28;47598;-77
2023/09/11 03:40:22;;;;;;;;;12.00;12.00;;;;;30.42;43.94;101261.00;5036682;28;45354;-77
2023/09/11 03:42:48;;;;;;;;;10.33;10.33;;;;;30.45;44.06;101255.16;5036496;28;45301;-77
2023/09/11 03:45:13;;;;;;;;;11.00;11.00;;;;;30.45;43.68;101260.53;5036027;28;45640;-77
2023/09/11 03:47:39;;;;;;;;;11.00;11.00;;;;;30.45;44.09;101273.94;5035801;28;45440;-77
2023/09/11 03:50:05;;;;;;;;;12.33;11.33;;;;;30.46;44.01;101275.59;5034668;28;46111;-77
2023/09/11 03:52:30;;;;;;;;;11.33;10.00;;;;;30.47;43.33;101274.56;5035369;28;45573;-77
2023/09/11 03:54:56;;;;;;;;;11.00;11.00;;;;;30.42;44.00;101261.78;5052239;28;45521;-77
2023/09/11 03:57:21;;;;;;;;;11.00;11.00;;;;;30.44;44.04;101266.94;5034608;28;47363;-77
2023/09/11 03:59:46;;;;;;;;;10.33;10.33;;;;;30.44;44.18;101275.84;5051707;28;45387;-77
2023/09/11 04:02:12;;;;;;;;;11.00;11.00;;;;;30.42;43.84;101269.06;5036037;28;45343;-78
2023/09/11 04:04:38;;;;;;;;;13.00;10.33;;;;;30.38;44.21;101264.13;5046097;28;45588;-76
2023/09/11 04:07:03;;;;;;;;;12.33;12.33;;;;;30.42;44.05;101277.91;5036199;28;46560;-77
2023/09/11 04:09:30;;;;;;;;;11.33;11.00;;;;;30.41;44.08;101281.66;5034900;28;45491;-77
2023/09/11 04:11:56;;;;;;;;;10.33;10.33;;;;;30.43;44.09;101276.88;5036134;28;45365;-77
2023/09/11 04:14:21;;;;;;;;;9.00;9.00;;;;;30.42;44.22;101269.06;5034852;28;45550;-77
2023/09/11 04:16:47;;;;;;;;;11.00;11.00;;;;;30.43;44.09;101270.66;5034766;28;46054;-77
2023/09/11 04:19:12;;;;;;;;;10.00;10.00;;;;;30.41;44.23;101260.19;5051575;28;45316;-77
2023/09/11 04:21:37;;;;;;;;;13.67;13.67;;;;;30.42;44.01;101259.09;5034359;28;45289;-77
2023/09/11 04:24:03;;;;;;;;;14.67;13.33;;;;;30.43;44.08;101258.06;5034713;28;45469;-77
2023/09/11 04:26:29;;;;;;;;;11.67;11.00;;;;;30.43;43.49;101254.56;5034330;28;45340;-77
2023/09/11 04:28:55;;;;;;;;;13.33;11.67;;;;;30.42;43.84;101250.25;5035872;28;45413;-77
2023/09/11 04:31:21;;;;;;;;;11.00;11.00;;;;;30.38;43.97;101236.47;5036346;28;45434;-77
2023/09/11 04:33:46;;;;;;;;;10.00;10.00;;;;;30.40;43.56;101245.94;5035790;28;45357;-77
2023/09/11 04:36:11;;;;;;;;;10.00;10.00;;;;;30.43;44.09;101252.72;5035829;28;45445;-77
2023/09/11 04:38:37;;;;;;;;;11.00;11.00;;;;;30.44;43.63;101245.47;5035617;28;45358;-77
2023/09/11 04:41:02;;;;;;;;;10.00;9.33;;;;;30.37;43.88;101229.47;5035686;28;45436;-76
2023/09/11 04:43:27;;;;;;;;;10.67;10.67;;;;;30.44;43.58;101240.09;5035833;28;45380;-77
2023/09/11 04:45:53;;;;;;;;;10.67;10.67;;;;;30.42;43.69;101240.31;5034498;28;46954;-77
2023/09/11 04:48:18;;;;;;;;;13.33;11.00;;;;;30.43;43.66;101227.72;5050945;28;45335;-77
2023/09/11 04:50:44;;;;;;;;;14.00;13.00;;;;;30.41;43.61;101225.28;5035780;28;45619;-77
2023/09/11 04:53:09;;;;;;;;;9.33;9.33;;;;;30.41;43.81;101225.28;5035828;28;45320;-77
2023/09/11 04:55:34;;;;;;;;;12.33;11.00;;;;;30.42;43.85;101226.09;5035257;28;46544;-77
2023/09/11 04:58:00;;;;;;;;;10.00;10.00;;;;;30.44;43.52;101232.06;5033213;28;45338;-77
2023/09/11 05:00:26;;;;;;;;;12.00;12.00;;;;;30.42;44.24;101242.22;5034258;28;45395;-76
2023/09/11 05:02:51;;;;;;;;;9.00;9.00;;;;;30.40;43.84;101237.06;5035457;28;45436;-77
2023/09/11 05:05:17;;;;;;;;;10.33;10.33;;;;;30.42;43.54;101239.53;5035012;28;46290;-77
2023/09/11 05:07:42;;;;;;;;;11.67;10.67;;;;;30.47;43.57;101248.50;5050873;28;45512;-78
2023/09/11 05:10:08;;;;;;;;;11.33;11.33;;;;;30.41;43.53;101236.00;5033803;28;45285;-77
2023/09/11 05:12:34;;;;;;;;;11.00;11.00;;;;;30.44;43.74;101243.63;5035448;28;45657;-77
2023/09/11 05:14:59;;;;;;;;;9.33;9.33;;;;;30.42;43.81;101242.22;5034971;28;47027;-77
2023/09/11 05:17:25;;;;;;;;;10.33;9.67;;;;;30.42;43.49;101250.25;5033570;28;45434;-77
2023/09/11 05:19:50;;;;;;;;;12.00;12.00;;;;;30.42;43.75;101244.91;5033929;28;45420;-76
2023/09/11 05:22:15;;;;;;;;;9.00;9.00;;;;;30.43;43.42;101257.25;5035046;28;45492;-77
2023/09/11 05:24:41;;;;;;;;;12.00;12.00;;;;;30.42;43.55;101250.25;5049109;28;47177;-77
2023/09/11 05:27:06;;;;;;;;;15.67;14.33;;;;;30.41;42.57;101260.19;5033140;28;45452;-73
2023/09/11 05:29:31;;;;;;;;;12.33;12.33;;;;;30.22;41.80;101257.50;5034245;28;45324;-74
2023/09/11 05:31:57;;;;;;;;;15.00;13.33;;;;;29.93;41.59;101254.53;5035208;28;45318;-77
2023/09/11 05:34:22;;;;;;;;;13.67;13.33;;;;;29.58;41.89;101256.78;5034911;28;49358;-78
2023/09/11 05:36:47;;;;;;;;;18.67;15.67;;;;;29.43;42.78;101256.31;5033691;28;45360;-77
2023/09/11 05:39:13;;;;;;;;;16.00;15.33;;;;;29.23;42.78;101265.34;5034975;28;45373;-76
2023/09/11 05:41:39;;;;;;;;;14.33;13.67;;;;;29.06;42.81;101264.03;5035530;28;45345;-79
2023/09/11 05:44:04;;;;;;;;;15.67;14.33;;;;;28.88;42.92;101259.41;5029577;28;46213;-76
2023/09/11 05:46:30;;;;;;;;;14.33;14.33;;;;;28.69;43.13;101256.66;5034058;28;45469;-73
2023/09/11 05:48:55;;;;;;;;;14.67;14.67;;;;;28.56;43.42;101276.28;5035802;28;45534;-76
2023/09/11 05:51:21;;;;;;;;;14.33;13.00;;;;;28.40;43.50;101274.91;5033331;28;45503;-73
2023/09/11 05:53:46;;;;;;;;;14.00;12.67;;;;;28.30;43.88;101278.03;5032221;28;47252;-74
2023/09/11 05:56:11;;;;;;;;;14.33;14.33;;;;;28.17;44.06;101277.06;5033984;28;45339;-74
2023/09/11 05:58:37;;;;;;;;;16.33;15.67;;;;;28.04;44.15;101283.28;5032856;28;45469;-75
2023/09/11 06:01:03;;;;;;;;;15.00;15.00;;;;;27.90;44.19;101270.97;5034572;28;45288;-75
2023/09/11 06:03:29;;;;;;;;;19.67;14.67;;;;;27.73;44.65;101276.75;5034458;28;47043;-76
2023/09/11 06:05:55;;;;;;;;;19.00;15.33;;;;;27.67;44.80;101294.44;4997359;28;45994;-73
2023/09/11 06:08:20;;;;;;;;;15.67;15.67;;;;;27.56;44.75;101284.41;5012998;28;45324;-77
2023/09/11 06:10:46;;;;;;;;;13.00;13.00;;;;;27.55;45.44;101290.78;4998694;28;45390;-76
2023/09/11 06:13:11;;;;;;;;;21.33;17.00;;;;;27.58;45.28;101298.38;5018017;28;47103;-75
2023/09/11 06:15:37;;;;;;;;;18.33;17.00;;;;;27.69;45.38;101297.72;5018243;28;45295;-75
2023/09/11 06:18:03;;;;;;;;;16.00;15.00;;;;;27.81;45.23;101307.81;5018241;28;45392;-75
2023/09/11 06:20:29;;;;;;;;;13.00;13.00;;;;;27.91;44.89;101300.19;5018225;28;45279;-75
2023/09/11 06:22:55;;;;;;;;;14.00;14.00;;;;;28.05;45.01;101302.84;5017632;28;45475;-75
2023/09/11 06:25:21;;;;;;;;;15.33;12.33;;;;;28.11;44.71;101296.63;4999206;28;45610;-75
2023/09/11 06:27:46;;;;;;;;;14.67;13.00;;;;;28.25;44.98;101302.75;4999943;28;45409;-76
2023/09/11 06:30:12;;;;;;;;;16.00;13.67;;;;;28.32;45.13;101291.19;5016983;28;45362;-81
2023/09/11 06:32:37;;;;;;;;;16.00;14.67;;;;;28.38;44.55;101293.03;5016201;28;47864;-76
2023/09/11 06:35:06;;;;;;;;;14.00;12.33;;;;;28.46;44.46;101284.78;5017939;28;45346;-82
2023/09/11 06:37:31;;;;;;;;;15.00;13.33;;;;;28.43;44.29;101276.34;5017732;28;45386;-78
2023/09/11 06:39:57;;;;;;;;;15.00;13.00;;;;;28.62;44.54;101298.72;5017782;28;45449;-75
2023/09/11 06:42:24;;;;;;;;;11.33;8.33;;;;;28.63;44.31;101303.84;4996289;28;48295;-75
2023/09/11 06:44:54;;;;;;;;;12.33;12.33;;;;;28.77;44.22;101314.47;4997946;28;45435;-76
2023/09/11 06:47:20;;;;;;;;;15.33;14.00;;;;;28.82;44.43;101317.34;4997973;28;45292;-75
2023/09/11 06:49:46;;;;;;;;;9.67;9.67;;;;;28.88;44.14;101314.84;4997662;28;45617;-75
2023/09/11 06:52:11;;;;;;;;;13.00;12.33;;;;;28.92;44.51;101324.06;4997295;28;47230;-75
2023/09/11 06:54:36;;;;;;;;;12.00;12.00;;;;;29.01;44.16;101320.09;4997695;28;45359;-75
2023/09/11 06:57:02;;;;;;;;;12.67;12.00;;;;;29.06;44.40;101324.81;4997924;28;45369;-75
2023/09/11 06:59:27;;;;;;;;;14.00;13.00;;;;;29.11;44.32;101325.00;4980090;28;45362;-75
2023/09/11 07:01:52;;;;;;;;;10.00;9.33;;;;;29.16;43.98;101327.03;4980673;28;46732;-76
2023/09/11 07:04:18;;;;;;;;;12.67;10.67;;;;;29.22;44.01;101322.66;5023111;28;45779;-75
2023/09/11 07:06:44;;;;;;;;;10.00;10.00;;;;;29.27;44.06;101323.66;5036389;28;45395;-76
2023/09/11 07:09:10;;;;;;;;;12.00;12.00;;;;;29.36;43.95;101324.19;5035823;28;45502;-75
2023/09/11 07:11:35;;;;;;;;;12.67;11.67;;;;;29.38;44.21;101318.63;5036746;28;46264;-76
2023/09/11 07:14:02;;;;;;;;;12.33;11.33;;;;;29.42;43.97;101316.31;5037004;28;45359;-76
2023/09/11 07:16:28;;;;;;;;;11.67;11.67;;;;;29.45;43.98;101323.91;5037404;28;45267;-75
2023/09/11 07:18:53;;;;;;;;;13.00;13.00;;;;;29.48;43.88;101320.78;5035586;28;45263;-75
2023/09/11 07:21:18;;;;;;;;;12.67;12.00;;;;;29.51;43.56;101320.34;5036605;28;45589;-75
2023/09/11 07:23:44;;;;;;;;;13.00;13.00;;;;;29.53;43.63;101318.28;5035797;28;45410;-76
2023/09/11 07:26:09;;;;;;;;;13.33;12.33;;;;;29.53;43.82;101323.63;5037161;28;45385;-75
2023/09/11 07:28:57;;;;;;;;;11.00;11.00;;;;;29.62;43.63;101330.34;5035506;28;45532;-75
2023/09/11 07:31:23;;;;;;;;;13.67;13.67;;;;;29.63;43.50;101328.50;5036799;28;46668;-75
2023/09/11 07:33:49;;;;;;;;;13.67;12.00;;;;;29.62;43.32;101319.63;5036720;28;45441;-75
2023/09/11 07:36:16;;;;;;;;;11.00;11.00;;;;;29.63;43.60;101323.94;5036568;28;45418;-75
2023/09/11 07:38:44;;;;;;;;;14.00;14.00;;;;;29.65;43.64;101326.41;5036630;28;45476;-75
2023/09/11 07:41:14;;;;;;;;;15.00;15.00;;;;;29.66;43.55;101324.53;5036590;28;45495;-75
2023/09/11 07:43:39;;;;;;;;;14.00;12.67;;;;;29.58;43.88;101310.38;5035334;28;45443;-76
2023/09/11 07:46:04;;;;;;;;;8.67;8.67;;;;;29.73;43.87;101326.16;5036684;28;45312;-75
2023/09/11 07:48:30;;;;;;;;;12.00;11.67;;;;;29.74;43.77;101338.50;5035093;28;45451;-76
2023/09/11 07:50:56;;;;;;;;;12.33;11.33;;;;;29.75;43.42;101339.31;5034796;28;45726;-75
2023/09/11 07:53:22;;;;;;;;;11.67;11.67;;;;;29.73;43.73;101330.69;5036316;28;45426;-76
2023/09/11 07:55:48;;;;;;;;;13.67;12.67;;;;;29.81;43.52;101343.81;5036482;28;45356;-75
2023/09/11 07:58:13;;;;;;;;;14.67;13.33;;;;;29.83;43.79;101339.03;5036234;28;45522;-76
2023/09/11 08:00:38;;;;;;;;;13.33;11.00;;;;;29.74;43.28;101335.03;5036133;28;46542;-76
2023/09/11 08:03:04;;;;;;;;;12.00;10.33;;;;;29.79;43.68;101353.94;5036360;28;45326;-75
2023/09/11 08:05:29;;;;;;;;;13.33;13.33;;;;;29.73;43.99;101336.06;5035984;28;45335;-75
2023/09/11 08:07:54;;;;;;;;;8.67;8.00;;;;;29.88;43.51;101367.03;5036177;28;45406;-75
2023/09/11 08:10:20;;;;;;;;;10.33;10.33;;;;;29.89;43.48;101366.84;5034872;28;47282;-76
2023/09/11 08:12:45;;;;;;;;;11.00;11.00;;;;;29.87;43.56;101354.69;5036075;28;45492;-76
2023/09/11 08:15:10;;;;;;;;;11.67;11.00;;;;;29.85;43.59;101357.59;5036548;28;45300;-75
2023/09/11 08:17:36;;;;;;;;;10.00;10.00;;;;;29.87;43.56;101362.75;5036174;28;45332;-76
2023/09/11 08:20:01;;;;;;;;;12.33;11.00;;;;;29.91;43.82;101364.75;5034431;28;46298;-75
2023/09/11 08:22:26;;;;;;;;;11.00;11.00;;;;;29.93;43.82;101367.19;5036071;28;45475;-75
2023/09/11 08:24:52;;;;;;;;;13.67;13.67;;;;;29.92;43.77;101369.09;5036257;28;45439;-76
2023/09/11 08:27:17;;;;;;;;;15.00;13.33;;;;;29.90;43.75;101371.16;5035971;28;45483;-75
2023/09/11 08:29:42;;;;;;;;;12.33;12.33;;;;;29.90;43.82;101367.66;5035864;28;45485;-75
2023/09/11 08:32:08;;;;;;;;;10.00;10.00;;;;;29.83;43.55;101362.34;5035791;28;45382;-76
2023/09/11 08:34:33;;;;;;;;;11.33;11.33;;;;;29.92;43.79;101374.44;5035185;28;45421;-75
2023/09/11 08:36:58;;;;;;;;;11.67;11.67;;;;;29.94;43.42;101379.59;5035425;28;45418;-75
2023/09/11 08:39:25;;;;;;;;;14.33;11.00;;;;;29.97;43.75;101376.47;5035581;28;45369;-76
2023/09/11 08:41:52;;;;;;;;;10.67;10.67;;;;;29.95;43.17;101368.63;5035770;28;45484;-76
2023/09/11 08:44:17;;;;;;;;;12.33;11.00;;;;;29.93;43.54;101359.97;5035824;28;45308;-75
2023/09/11 08:46:45;;;;;;;;;11.33;11.33;;;;;30.02;43.45;101373.09;5035532;28;45435;-76
2023/09/11 08:49:13;;;;;;;;;10.67;10.67;;;;;29.97;43.46;101376.47;5035240;28;46681;-77
2023/09/11 08:51:45;;;;;;;;;11.00;11.00;;;;;30.01;43.55;101382.19;5035569;28;45362;-76
2023/09/11 08:54:12;;;;;;;;;10.33;10.33;;;;;29.98;43.65;101385.34;5034390;28;45492;-75
2023/09/11 08:56:40;;;;;;;;;12.50;12.50;;;;;30.01;43.34;101385.69;5035590;28;45348;-76
2023/09/11 08:59:06;;;;;;;;;12.00;12.00;;;;;30.01;44.12;101388.38;5035603;28;45549;-76
2023/09/11 09:01:32;;;;;;;;;12.33;11.33;;;;;30.00;43.86;101380.56;5033685;28;45329;-76
2023/09/11 09:03:58;;;;;;;;;13.67;12.67;;;;;29.99;43.65;101370.88;5035044;28;45363;-76
2023/09/11 09:06:24;;;;;;;;;10.67;9.00;;;;;30.03;43.79;101377.44;5034432;28;45575;-75
2023/09/11 09:08:51;;;;;;;;;11.00;10.00;;;;;30.03;43.61;101377.44;5035140;28;46385;-76
2023/09/11 09:11:19;;;;;;;;;10.00;10.00;;;;;30.04;43.28;101384.44;5035408;28;45309;-76
2023/09/11 09:13:44;;;;;;;;;9.67;9.67;;;;;30.06;44.01;101390.38;5033987;28;45449;-76
2023/09/11 09:16:09;;;;;;;;;13.00;12.00;;;;;30.05;43.70;101391.44;5034316;28;45407;-76
2023/09/11 09:18:35;;;;;;;;;10.00;10.00;;;;;30.06;43.81;101399.25;5035234;28;46319;-76
2023/09/11 09:21:00;;;;;;;;;11.33;11.33;;;;;30.00;43.63;101377.88;5033983;28;45258;-76
2023/09/11 09:23:35;;;;;;;;;12.00;12.00;;;;;30.06;43.52;101385.84;5034091;28;45892;-76
2023/09/11 09:26:09;;;;;;;;;8.67;8.67;;;;;30.07;43.51;101403.59;5035423;28;45442;-76
2023/09/11 09:28:42;;;;;;;;;13.00;11.00;;;;;30.09;43.52;101415.94;5035077;28;46199;-75
2023/09/11 09:31:08;;;;;;;;;13.33;13.33;;;;;29.99;43.52;101405.75;5034942;28;45375;-76
2023/09/11 09:33:35;;;;;;;;;12.00;12.00;;;;;30.11;43.36;101446.88;5034841;28;45358;-76
2023/09/11 09:36:00;;;;;;;;;11.00;11.00;;;;;30.15;43.63;101458.00;5034761;28;45664;-76
2023/09/11 09:38:26;;;;;;;;;11.00;11.00;;;;;30.15;43.54;101458.84;5049865;28;46904;-76
2023/09/11 09:40:54;;;;;;;;;12.33;11.33;;;;;30.13;43.57;101458.25;5035218;28;45322;-76
2023/09/11 09:43:21;;;;;;;;;12.00;11.00;;;;;30.11;43.74;101462.19;5015155;28;45527;-76
2023/09/11 09:45:47;;;;;;;;;11.00;11.00;;;;;30.13;43.48;101466.28;5016437;28;45516;-76
2023/09/11 09:48:16;;;;;;;;;14.33;12.67;;;;;30.18;43.77;101473.66;5016756;28;45606;-76
2023/09/11 09:50:48;;;;;;;;;11.00;10.67;;;;;30.19;43.70;101472.63;5016898;28;45588;-76
2023/09/11 09:53:23;;;;;;;;;11.00;11.00;;;;;30.18;43.71;101462.94;5017259;28;45491;-76
2023/09/11 09:55:49;;;;;;;;;12.00;11.33;;;;;30.19;44.04;101472.63;5018442;28;45617;-76
2023/09/11 09:58:14;;;;;;;;;11.00;11.00;;;;;30.19;42.84;101483.34;5017701;28;45898;-75
2023/09/11 10:00:39;;;;;;;;;10.00;10.00;;;;;30.20;44.01;101498.41;5018284;28;45347;-76
2023/09/11 10:03:05;;;;;;;;;10.67;10.00;;;;;30.21;43.61;101526.91;5016984;28;45807;-75
2023/09/11 10:05:31;;;;;;;;;10.67;10.67;;;;;30.19;43.46;101537.00;5033022;28;45353;-76
2023/09/11 10:07:59;;;;;;;;;13.00;12.00;;;;;30.20;43.50;101535.16;5036608;28;47802;-75
2023/09/11 10:10:30;;;;;;;;;11.33;11.33;;;;;30.17;43.54;101525.69;5038411;28;45393;-76
2023/09/11 10:13:02;;;;;;;;;11.00;10.67;;;;;30.22;43.70;101528.53;5038100;28;45433;-76
2023/09/11 10:15:29;;;;;;;;;12.67;11.33;;;;;30.17;43.78;101517.63;5036661;28;45482;-76
2023/09/11 10:17:55;;;;;;;;;10.33;10.33;;;;;30.17;43.85;101502.38;5037967;28;46669;-76
2023/09/11 10:20:21;;;;;;;;;11.33;11.00;;;;;30.22;43.85;101500.88;5038204;28;45371;-76
2023/09/11 10:22:47;;;;;;;;;9.67;9.67;;;;;30.18;43.89;101471.81;5038076;28;45363;-75
2023/09/11 10:25:12;;;;;;;;;11.00;10.67;;;;;30.10;43.33;101460.53;5056354;28;45994;-75
2023/09/11 10:27:39;;;;;;;;;14.00;10.00;;;;;30.20;43.35;101465.38;5039279;28;48140;-75
2023/09/11 10:30:08;;;;;;;;;10.00;8.67;;;;;30.20;43.54;101458.16;5053853;28;46306;-76
2023/09/11 10:32:55;;;;;;;;;9.33;9.33;;;;;30.22;43.80;101452.56;5037853;28;45403;-75
2023/09/11 10:35:20;;;;;;;;;8.00;8.00;;;;;30.19;43.53;101429.69;5037706;28;45603;-75
2023/09/11 10:37:46;;;;;;;;;10.33;10.33;;;;;30.21;43.65;101414.19;5037667;28;45439;-76
2023/09/11 10:40:14;;;;;;;;;10.67;10.00;;;;;30.21;43.28;101391.91;5037936;28;45376;-76
2023/09/11 10:42:41;;;;;;;;;10.00;9.67;;;;;30.20;43.80;101372.28;5037444;28;45379;-75
2023/09/11 10:45:25;;;;;;;;;12.67;10.00;;;;;30.23;43.79;101354.94;5037390;28;45461;-76
2023/09/11 10:47:50;;;;;;;;;11.00;11.00;;;;;30.22;43.52;101324.59;5037174;28;47363;-76
2023/09/11 10:50:16;;;;;;;;;9.33;9.33;;;;;30.22;43.23;101308.47;5037620;28;45494;-76
2023/09/11 10:52:41;;;;;;;;;11.67;11.67;;;;;30.17;43.53;101292.25;5037810;28;45613;-76
2023/09/11 10:55:08;;;;;;;;;11.00;11.00;;;;;30.21;43.41;101290.75;5036359;28;45460;-76
2023/09/11 10:57:34;;;;;;;;;8.33;8.33;;;;;30.23;43.78;101266.38;5036769;28;45758;-75
2023/09/11 11:00:05;;;;;;;;;11.33;11.33;;;;;30.20;43.84;101234.63;5037243;28;45410;-76
2023/09/11 11:02:30;;;;;;;;;9.33;9.33;;;;;30.08;43.92;101235.41;5036115;28;45443;-75
2023/09/11 11:04:56;;;;;;;;;10.67;10.67;;;;;30.19;43.79;101274.03;5037098;28;45457;-75
2023/09/11 11:07:21;;;;;;;;;10.00;10.00;;;;;30.19;43.43;101271.34;5036875;28;47296;-75
2023/09/11 11:09:48;;;;;;;;;13.00;10.33;;;;;30.18;43.56;101243.72;5037383;28;45411;-76